sensor_id;sensor_type;location;lat;lon;timestamp;temperature;humidity
18229;DHT22;9239;50.932;3.142;2023-06-04T00:02:00;14.50;99.90
18229;DHT22;9239;50.932;3.142;2023-06-04T00:04:27;14.50;99.90
18229;DHT22;9239;50.932;3.142;2023-06-04T00:06:54;14.40;99.90
18229;DHT22;9239;50.932;3.142;2023-06-04T00:09:21;14.40;99.90
18229;DHT22;9239;50.932;3.142;2023-06-04T00:11:50;14.40;99.90
18229;DHT22;9239;50.932;3.142;2023-06-04T00:14:16;14.40;99.90
18229;DHT22;9239;50.932;3.142;2023-06-04T00:16:43;14.30;99.90
18229;DHT22;9239;50.932;3.142;2023-06-04T00:19:10;14.30;99.90
18229;DHT22;9239;50.932;3.142;2023-06-04T00:21:37;14.30;99.90
18229;DHT22;9239;50.932;3.142;2023-06-04T00:24:04;14.30;99.90
18229;DHT22;9239;50.932;3.142;2023-06-04T00:26:31;14.30;99.90
18229;DHT22;9239;50.932;3.142;2023-06-04T00:29:00;14.30;99.90
18229;DHT22;9239;50.932;3.142;2023-06-04T00:31:27;14.20;99.90
18229;DHT22;9239;50.932;3.142;2023-06-04T00:33:54;14.20;99.90
18229;DHT22;9239;50.932;3.142;2023-06-04T00:36:21;14.20;99.90
18229;DHT22;9239;50.932;3.142;2023-06-04T00:38:47;14.20;99.90
18229;DHT22;9239;50.932;3.142;2023-06-04T00:41:14;14.20;99.90
18229;DHT22;9239;50.932;3.142;2023-06-04T00:43:42;14.20;99.90
18229;DHT22;9239;50.932;3.142;2023-06-04T00:46:12;14.10;99.90
18229;DHT22;9239;50.932;3.142;2023-06-04T00:48:43;14.00;99.90
18229;DHT22;9239;50.932;3.142;2023-06-04T00:51:11;14.00;99.90
18229;DHT22;9239;50.932;3.142;2023-06-04T00:53:38;14.00;99.90
18229;DHT22;9239;50.932;3.142;2023-06-04T00:56:06;14.00;99.90
18229;DHT22;9239;50.932;3.142;2023-06-04T00:58:33;14.00;99.90
18229;DHT22;9239;50.932;3.142;2023-06-04T01:01:04;14.00;99.90
18229;DHT22;9239;50.932;3.142;2023-06-04T01:03:38;14.00;99.90
18229;DHT22;9239;50.932;3.142;2023-06-04T01:06:14;14.00;99.90
18229;DHT22;9239;50.932;3.142;2023-06-04T01:08:49;14.00;99.90
18229;DHT22;9239;50.932;3.142;2023-06-04T01:11:31;14.00;99.90
18229;DHT22;9239;50.932;3.142;2023-06-04T01:13:58;14.00;99.90
18229;DHT22;9239;50.932;3.142;2023-06-04T01:16:25;13.90;99.90
18229;DHT22;9239;50.932;3.142;2023-06-04T01:18:56;14.00;99.90
18229;DHT22;9239;50.932;3.142;2023-06-04T01:21:26;14.00;99.90
18229;DHT22;9239;50.932;3.142;2023-06-04T01:23:59;13.90;99.90
18229;DHT22;9239;50.932;3.142;2023-06-04T01:26:30;13.90;99.90
18229;DHT22;9239;50.932;3.142;2023-06-04T01:28:58;13.90;99.90
18229;DHT22;9239;50.932;3.142;2023-06-04T01:31:27;13.90;99.90
18229;DHT22;9239;50.932;3.142;2023-06-04T01:33:59;13.90;99.90
18229;DHT22;9239;50.932;3.142;2023-06-04T01:36:27;13.80;99.90
18229;DHT22;9239;50.932;3.142;2023-06-04T01:38:54;13.80;99.90
18229;DHT22;9239;50.932;3.142;2023-06-04T01:41:21;13.80;99.90
18229;DHT22;9239;50.932;3.142;2023-06-04T01:43:48;13.80;99.90
18229;DHT22;9239;50.932;3.142;2023-06-04T01:46:15;13.80;99.90
18229;DHT22;9239;50.932;3.142;2023-06-04T01:48:42;13.80;99.90
18229;DHT22;9239;50.932;3.142;2023-06-04T01:51:10;13.80;99.90
18229;DHT22;9239;50.932;3.142;2023-06-04T01:53:37;13.70;99.90
18229;DHT22;9239;50.932;3.142;2023-06-04T01:56:04;13.70;99.90
18229;DHT22;9239;50.932;3.142;2023-06-04T01:58:31;13.80;99.90
18229;DHT22;9239;50.932;3.142;2023-06-04T02:00:59;13.70;99.90
18229;DHT22;9239;50.932;3.142;2023-06-04T02:03:28;13.70;99.90
18229;DHT22;9239;50.932;3.142;2023-06-04T02:05:58;13.60;99.90
18229;DHT22;9239;50.932;3.142;2023-06-04T02:08:26;13.60;99.90
18229;DHT22;9239;50.932;3.142;2023-06-04T02:10:53;13.60;99.90
18229;DHT22;9239;50.932;3.142;2023-06-04T02:13:20;13.60;99.90
18229;DHT22;9239;50.932;3.142;2023-06-04T02:15:46;13.50;99.90
18229;DHT22;9239;50.932;3.142;2023-06-04T02:18:15;13.60;99.90
18229;DHT22;9239;50.932;3.142;2023-06-04T02:20:43;13.60;99.90
18229;DHT22;9239;50.932;3.142;2023-06-04T02:23:10;13.50;99.90
18229;DHT22;9239;50.932;3.142;2023-06-04T02:25:39;13.40;99.90
18229;DHT22;9239;50.932;3.142;2023-06-04T02:28:06;13.40;99.90
18229;DHT22;9239;50.932;3.142;2023-06-04T02:30:33;13.40;99.90
18229;DHT22;9239;50.932;3.142;2023-06-04T02:33:00;13.40;99.90
18229;DHT22;9239;50.932;3.142;2023-06-04T02:35:27;13.40;99.90
18229;DHT22;9239;50.932;3.142;2023-06-04T02:37:54;13.40;99.90
18229;DHT22;9239;50.932;3.142;2023-06-04T02:40:23;13.40;99.90
18229;DHT22;9239;50.932;3.142;2023-06-04T02:42:52;13.30;99.90
18229;DHT22;9239;50.932;3.142;2023-06-04T02:45:19;13.30;99.90
18229;DHT22;9239;50.932;3.142;2023-06-04T02:47:46;13.30;99.90
18229;DHT22;9239;50.932;3.142;2023-06-04T02:50:14;13.30;99.90
18229;DHT22;9239;50.932;3.142;2023-06-04T02:52:41;13.30;99.90
18229;DHT22;9239;50.932;3.142;2023-06-04T02:55:08;13.30;99.90
18229;DHT22;9239;50.932;3.142;2023-06-04T02:57:38;13.30;99.90
18229;DHT22;9239;50.932;3.142;2023-06-04T03:00:08;13.30;99.90
18229;DHT22;9239;50.932;3.142;2023-06-04T03:02:39;13.40;99.90
18229;DHT22;9239;50.932;3.142;2023-06-04T03:05:08;13.30;99.90
18229;DHT22;9239;50.932;3.142;2023-06-04T03:07:36;13.40;99.90
18229;DHT22;9239;50.932;3.142;2023-06-04T03:10:03;13.30;99.90
18229;DHT22;9239;50.932;3.142;2023-06-04T03:12:30;13.30;99.90
18229;DHT22;9239;50.932;3.142;2023-06-04T03:14:57;13.20;99.90
18229;DHT22;9239;50.932;3.142;2023-06-04T03:17:25;13.20;99.90
18229;DHT22;9239;50.932;3.142;2023-06-04T03:19:52;13.20;99.90
18229;DHT22;9239;50.932;3.142;2023-06-04T03:22:21;13.10;99.90
18229;DHT22;9239;50.932;3.142;2023-06-04T03:24:49;13.10;99.90
18229;DHT22;9239;50.932;3.142;2023-06-04T03:27:18;13.10;99.90
18229;DHT22;9239;50.932;3.142;2023-06-04T03:29:45;13.10;99.90
18229;DHT22;9239;50.932;3.142;2023-06-04T03:32:12;13.10;99.90
18229;DHT22;9239;50.932;3.142;2023-06-04T03:34:40;13.10;99.90
18229;DHT22;9239;50.932;3.142;2023-06-04T03:37:07;13.10;99.90
18229;DHT22;9239;50.932;3.142;2023-06-04T03:39:34;13.00;99.90
18229;DHT22;9239;50.932;3.142;2023-06-04T03:42:01;13.00;99.90
18229;DHT22;9239;50.932;3.142;2023-06-04T03:44:28;13.00;99.90
18229;DHT22;9239;50.932;3.142;2023-06-04T03:46:55;13.00;99.90
18229;DHT22;9239;50.932;3.142;2023-06-04T03:49:22;12.90;99.90
18229;DHT22;9239;50.932;3.142;2023-06-04T03:51:50;12.90;99.90
18229;DHT22;9239;50.932;3.142;2023-06-04T03:54:17;12.90;99.90
18229;DHT22;9239;50.932;3.142;2023-06-04T03:56:44;12.90;99.90
18229;DHT22;9239;50.932;3.142;2023-06-04T03:59:11;12.90;99.90
18229;DHT22;9239;50.932;3.142;2023-06-04T04:01:38;12.90;99.90
18229;DHT22;9239;50.932;3.142;2023-06-04T04:04:06;12.90;99.90
18229;DHT22;9239;50.932;3.142;2023-06-04T04:06:33;12.90;99.90
18229;DHT22;9239;50.932;3.142;2023-06-04T04:09:02;12.80;99.90
18229;DHT22;9239;50.932;3.142;2023-06-04T04:11:29;12.90;99.90
18229;DHT22;9239;50.932;3.142;2023-06-04T04:13:56;12.90;99.90
18229;DHT22;9239;50.932;3.142;2023-06-04T04:16:23;12.80;99.90
18229;DHT22;9239;50.932;3.142;2023-06-04T04:18:50;12.80;99.90
18229;DHT22;9239;50.932;3.142;2023-06-04T04:21:17;12.80;99.90
18229;DHT22;9239;50.932;3.142;2023-06-04T04:23:45;12.90;99.90
18229;DHT22;9239;50.932;3.142;2023-06-04T04:26:13;13.00;99.90
18229;DHT22;9239;50.932;3.142;2023-06-04T04:28:42;13.00;99.90
18229;DHT22;9239;50.932;3.142;2023-06-04T04:31:09;13.00;99.90
18229;DHT22;9239;50.932;3.142;2023-06-04T04:33:36;13.00;99.90
18229;DHT22;9239;50.932;3.142;2023-06-04T04:36:05;13.00;99.90
18229;DHT22;9239;50.932;3.142;2023-06-04T04:38:34;13.10;99.90
18229;DHT22;9239;50.932;3.142;2023-06-04T04:41:01;13.10;99.90
18229;DHT22;9239;50.932;3.142;2023-06-04T04:43:30;13.20;99.90
18229;DHT22;9239;50.932;3.142;2023-06-04T04:45:58;13.20;99.90
18229;DHT22;9239;50.932;3.142;2023-06-04T04:48:25;13.20;99.90
18229;DHT22;9239;50.932;3.142;2023-06-04T04:50:52;13.20;99.90
18229;DHT22;9239;50.932;3.142;2023-06-04T04:53:19;13.30;99.90
18229;DHT22;9239;50.932;3.142;2023-06-04T04:55:46;13.30;99.90
18229;DHT22;9239;50.932;3.142;2023-06-04T04:58:13;13.40;99.90
18229;DHT22;9239;50.932;3.142;2023-06-04T05:00:42;13.50;99.90
18229;DHT22;9239;50.932;3.142;2023-06-04T05:03:09;13.60;99.90
18229;DHT22;9239;50.932;3.142;2023-06-04T05:05:35;13.70;99.90
18229;DHT22;9239;50.932;3.142;2023-06-04T05:08:03;13.80;99.90
18229;DHT22;9239;50.932;3.142;2023-06-04T05:10:30;13.90;99.90
18229;DHT22;9239;50.932;3.142;2023-06-04T05:12:58;14.00;99.90
18229;DHT22;9239;50.932;3.142;2023-06-04T05:15:26;14.10;99.90
18229;DHT22;9239;50.932;3.142;2023-06-04T05:17:55;14.50;99.90
18229;DHT22;9239;50.932;3.142;2023-06-04T05:20:22;14.80;99.90
18229;DHT22;9239;50.932;3.142;2023-06-04T05:22:48;15.00;99.90
18229;DHT22;9239;50.932;3.142;2023-06-04T05:25:16;15.00;99.90
18229;DHT22;9239;50.932;3.142;2023-06-04T05:27:43;15.00;99.90
18229;DHT22;9239;50.932;3.142;2023-06-04T05:30:11;14.90;99.90
18229;DHT22;9239;50.932;3.142;2023-06-04T05:32:39;14.90;99.90
18229;DHT22;9239;50.932;3.142;2023-06-04T05:35:08;14.80;99.90
18229;DHT22;9239;50.932;3.142;2023-06-04T05:37:37;14.80;99.90
18229;DHT22;9239;50.932;3.142;2023-06-04T05:40:07;14.80;99.90
18229;DHT22;9239;50.932;3.142;2023-06-04T05:42:34;14.80;99.90
18229;DHT22;9239;50.932;3.142;2023-06-04T05:45:01;14.90;99.90
18229;DHT22;9239;50.932;3.142;2023-06-04T05:47:28;14.80;99.90
18229;DHT22;9239;50.932;3.142;2023-06-04T05:49:55;15.00;99.90
18229;DHT22;9239;50.932;3.142;2023-06-04T05:52:24;15.10;99.90
18229;DHT22;9239;50.932;3.142;2023-06-04T05:54:50;15.30;99.90
18229;DHT22;9239;50.932;3.142;2023-06-04T05:57:17;15.50;99.90
18229;DHT22;9239;50.932;3.142;2023-06-04T05:59:44;15.50;99.90
18229;DHT22;9239;50.932;3.142;2023-06-04T06:02:11;15.60;99.90
18229;DHT22;9239;50.932;3.142;2023-06-04T06:04:39;15.60;99.90
18229;DHT22;9239;50.932;3.142;2023-06-04T06:07:06;15.70;99.90
18229;DHT22;9239;50.932;3.142;2023-06-04T06:09:34;15.60;99.90
18229;DHT22;9239;50.932;3.142;2023-06-04T06:12:02;15.80;99.90
18229;DHT22;9239;50.932;3.142;2023-06-04T06:14:29;15.80;99.90
18229;DHT22;9239;50.932;3.142;2023-06-04T06:16:56;15.90;99.90
18229;DHT22;9239;50.932;3.142;2023-06-04T06:19:23;16.10;99.90
18229;DHT22;9239;50.932;3.142;2023-06-04T06:21:50;16.10;99.90
18229;DHT22;9239;50.932;3.142;2023-06-04T06:24:17;16.20;99.90
18229;DHT22;9239;50.932;3.142;2023-06-04T06:26:45;16.20;99.90
18229;DHT22;9239;50.932;3.142;2023-06-04T06:29:12;16.30;99.90
18229;DHT22;9239;50.932;3.142;2023-06-04T06:31:39;16.20;99.90
18229;DHT22;9239;50.932;3.142;2023-06-04T06:34:06;16.40;99.90
18229;DHT22;9239;50.932;3.142;2023-06-04T06:36:33;16.50;99.90
18229;DHT22;9239;50.932;3.142;2023-06-04T06:39:00;16.60;99.90
18229;DHT22;9239;50.932;3.142;2023-06-04T06:41:27;16.60;99.90
18229;DHT22;9239;50.932;3.142;2023-06-04T06:43:56;16.80;99.90
18229;DHT22;9239;50.932;3.142;2023-06-04T06:46:23;16.80;99.90
18229;DHT22;9239;50.932;3.142;2023-06-04T06:48:50;16.80;99.90
18229;DHT22;9239;50.932;3.142;2023-06-04T06:51:17;16.90;99.90
18229;DHT22;9239;50.932;3.142;2023-06-04T06:53:44;16.90;99.90
18229;DHT22;9239;50.932;3.142;2023-06-04T06:56:11;16.90;99.90
18229;DHT22;9239;50.932;3.142;2023-06-04T06:58:37;17.00;99.90
18229;DHT22;9239;50.932;3.142;2023-06-04T07:01:06;17.10;99.90
18229;DHT22;9239;50.932;3.142;2023-06-04T07:03:33;17.20;99.90
18229;DHT22;9239;50.932;3.142;2023-06-04T07:06:00;17.20;99.90
18229;DHT22;9239;50.932;3.142;2023-06-04T07:08:27;17.10;99.90
18229;DHT22;9239;50.932;3.142;2023-06-04T07:10:54;17.20;99.90
18229;DHT22;9239;50.932;3.142;2023-06-04T07:13:21;17.50;99.90
18229;DHT22;9239;50.932;3.142;2023-06-04T07:15:48;17.60;99.90
18229;DHT22;9239;50.932;3.142;2023-06-04T07:18:16;17.80;99.90
18229;DHT22;9239;50.932;3.142;2023-06-04T07:20:43;17.80;99.90
18229;DHT22;9239;50.932;3.142;2023-06-04T07:23:10;17.90;99.90
18229;DHT22;9239;50.932;3.142;2023-06-04T07:25:37;17.90;99.90
18229;DHT22;9239;50.932;3.142;2023-06-04T07:28:04;18.20;99.90
18229;DHT22;9239;50.932;3.142;2023-06-04T07:30:31;18.60;99.90
18229;DHT22;9239;50.932;3.142;2023-06-04T07:32:58;19.10;99.90
18229;DHT22;9239;50.932;3.142;2023-06-04T07:35:26;19.30;99.90
18229;DHT22;9239;50.932;3.142;2023-06-04T07:37:53;19.50;99.90
18229;DHT22;9239;50.932;3.142;2023-06-04T07:40:20;19.50;99.90
18229;DHT22;9239;50.932;3.142;2023-06-04T07:42:47;19.20;99.90
18229;DHT22;9239;50.932;3.142;2023-06-04T07:45:14;18.90;99.90
18229;DHT22;9239;50.932;3.142;2023-06-04T07:47:42;18.80;99.90
18229;DHT22;9239;50.932;3.142;2023-06-04T07:50:09;18.70;99.90
18229;DHT22;9239;50.932;3.142;2023-06-04T07:52:38;18.80;99.90
18229;DHT22;9239;50.932;3.142;2023-06-04T07:55:06;18.90;99.90
18229;DHT22;9239;50.932;3.142;2023-06-04T07:57:34;18.90;99.90
18229;DHT22;9239;50.932;3.142;2023-06-04T08:00:01;19.00;99.90
18229;DHT22;9239;50.932;3.142;2023-06-04T08:02:30;19.10;99.90
18229;DHT22;9239;50.932;3.142;2023-06-04T08:04:57;19.20;99.90
18229;DHT22;9239;50.932;3.142;2023-06-04T08:07:23;19.30;99.90
18229;DHT22;9239;50.932;3.142;2023-06-04T08:09:52;19.40;99.90
18229;DHT22;9239;50.932;3.142;2023-06-04T08:12:19;19.40;99.90
18229;DHT22;9239;50.932;3.142;2023-06-04T08:14:46;19.30;99.90
18229;DHT22;9239;50.932;3.142;2023-06-04T08:17:13;19.40;99.90
18229;DHT22;9239;50.932;3.142;2023-06-04T08:19:40;19.50;99.90
18229;DHT22;9239;50.932;3.142;2023-06-04T08:22:07;19.60;99.90
18229;DHT22;9239;50.932;3.142;2023-06-04T08:24:36;19.70;99.90
18229;DHT22;9239;50.932;3.142;2023-06-04T08:27:05;19.70;99.90
18229;DHT22;9239;50.932;3.142;2023-06-04T08:29:33;19.70;99.90
18229;DHT22;9239;50.932;3.142;2023-06-04T08:32:01;19.50;99.90
18229;DHT22;9239;50.932;3.142;2023-06-04T08:34:28;19.50;99.90
18229;DHT22;9239;50.932;3.142;2023-06-04T08:36:55;19.70;99.90
18229;DHT22;9239;50.932;3.142;2023-06-04T08:39:22;19.80;99.90
18229;DHT22;9239;50.932;3.142;2023-06-04T08:41:51;19.80;99.90
18229;DHT22;9239;50.932;3.142;2023-06-04T08:44:20;20.00;99.90
18229;DHT22;9239;50.932;3.142;2023-06-04T08:46:51;19.90;99.90
18229;DHT22;9239;50.932;3.142;2023-06-04T08:49:22;20.00;99.90
18229;DHT22;9239;50.932;3.142;2023-06-04T08:51:49;20.10;99.90
18229;DHT22;9239;50.932;3.142;2023-06-04T08:54:16;20.20;99.90
18229;DHT22;9239;50.932;3.142;2023-06-04T08:56:44;20.20;99.90
18229;DHT22;9239;50.932;3.142;2023-06-04T08:59:11;20.30;99.90
18229;DHT22;9239;50.932;3.142;2023-06-04T09:01:41;20.30;99.90
18229;DHT22;9239;50.932;3.142;2023-06-04T09:04:11;20.20;99.90
18229;DHT22;9239;50.932;3.142;2023-06-04T09:06:39;20.20;99.90
18229;DHT22;9239;50.932;3.142;2023-06-04T09:09:09;20.20;99.90
18229;DHT22;9239;50.932;3.142;2023-06-04T09:11:41;20.30;99.90
18229;DHT22;9239;50.932;3.142;2023-06-04T09:14:09;20.50;99.90
18229;DHT22;9239;50.932;3.142;2023-06-04T09:16:46;20.60;99.90
18229;DHT22;9239;50.932;3.142;2023-06-04T09:19:14;20.70;99.90
18229;DHT22;9239;50.932;3.142;2023-06-04T09:21:48;20.70;99.90
18229;DHT22;9239;50.932;3.142;2023-06-04T09:24:15;20.60;99.90
18229;DHT22;9239;50.932;3.142;2023-06-04T09:26:42;20.50;99.90
18229;DHT22;9239;50.932;3.142;2023-06-04T09:29:09;20.60;99.90
18229;DHT22;9239;50.932;3.142;2023-06-04T09:31:36;20.70;99.90
18229;DHT22;9239;50.932;3.142;2023-06-04T09:34:06;20.80;99.90
18229;DHT22;9239;50.932;3.142;2023-06-04T09:36:34;20.90;99.90
18229;DHT22;9239;50.932;3.142;2023-06-04T09:39:02;21.00;99.90
18229;DHT22;9239;50.932;3.142;2023-06-04T09:41:30;21.10;99.90
18229;DHT22;9239;50.932;3.142;2023-06-04T09:44:01;21.10;99.90
18229;DHT22;9239;50.932;3.142;2023-06-04T09:46:29;21.10;99.90
18229;DHT22;9239;50.932;3.142;2023-06-04T09:49:00;21.10;99.90
18229;DHT22;9239;50.932;3.142;2023-06-04T09:51:30;21.20;99.90
18229;DHT22;9239;50.932;3.142;2023-06-04T09:53:58;21.20;99.90
18229;DHT22;9239;50.932;3.142;2023-06-04T09:56:26;21.30;99.90
18229;DHT22;9239;50.932;3.142;2023-06-04T09:58:55;21.20;99.90
18229;DHT22;9239;50.932;3.142;2023-06-04T10:01:23;21.20;99.90
18229;DHT22;9239;50.932;3.142;2023-06-04T10:03:51;21.30;99.90
18229;DHT22;9239;50.932;3.142;2023-06-04T10:06:19;21.40;99.90
18229;DHT22;9239;50.932;3.142;2023-06-04T10:08:50;21.30;99.90
18229;DHT22;9239;50.932;3.142;2023-06-04T10:11:25;21.30;99.90
18229;DHT22;9239;50.932;3.142;2023-06-04T10:13:54;21.40;99.90
18229;DHT22;9239;50.932;3.142;2023-06-04T10:16:25;21.40;99.90
18229;DHT22;9239;50.932;3.142;2023-06-04T10:18:52;21.40;99.90
18229;DHT22;9239;50.932;3.142;2023-06-04T10:21:21;21.40;99.90
18229;DHT22;9239;50.932;3.142;2023-06-04T10:23:51;21.50;99.90
18229;DHT22;9239;50.932;3.142;2023-06-04T10:26:18;21.60;99.90
18229;DHT22;9239;50.932;3.142;2023-06-04T10:28:45;21.70;99.90
18229;DHT22;9239;50.932;3.142;2023-06-04T10:31:12;21.70;99.90
18229;DHT22;9239;50.932;3.142;2023-06-04T10:33:39;21.70;99.90
18229;DHT22;9239;50.932;3.142;2023-06-04T10:36:19;21.80;99.90
18229;DHT22;9239;50.932;3.142;2023-06-04T10:38:47;21.80;99.90
18229;DHT22;9239;50.932;3.142;2023-06-04T10:41:16;21.80;99.90
18229;DHT22;9239;50.932;3.142;2023-06-04T10:43:45;21.80;99.90
18229;DHT22;9239;50.932;3.142;2023-06-04T10:46:13;21.70;99.90
18229;DHT22;9239;50.932;3.142;2023-06-04T10:48:47;21.60;99.90
18229;DHT22;9239;50.932;3.142;2023-06-04T10:51:28;21.50;99.90
18229;DHT22;9239;50.932;3.142;2023-06-04T10:53:56;21.60;99.90
18229;DHT22;9239;50.932;3.142;2023-06-04T10:56:26;21.80;99.90
18229;DHT22;9239;50.932;3.142;2023-06-04T10:58:54;21.90;99.90
18229;DHT22;9239;50.932;3.142;2023-06-04T11:01:24;21.90;99.90
18229;DHT22;9239;50.932;3.142;2023-06-04T11:03:51;22.00;99.90
18229;DHT22;9239;50.932;3.142;2023-06-04T11:06:18;21.90;99.90
18229;DHT22;9239;50.932;3.142;2023-06-04T11:08:46;22.10;99.90
18229;DHT22;9239;50.932;3.142;2023-06-04T11:11:15;22.10;99.90
18229;DHT22;9239;50.932;3.142;2023-06-04T11:13:43;22.00;99.90
18229;DHT22;9239;50.932;3.142;2023-06-04T11:16:17;22.10;99.90
18229;DHT22;9239;50.932;3.142;2023-06-04T11:18:54;22.00;99.90
18229;DHT22;9239;50.932;3.142;2023-06-04T11:21:22;22.10;99.90
18229;DHT22;9239;50.932;3.142;2023-06-04T11:23:49;22.00;99.90
18229;DHT22;9239;50.932;3.142;2023-06-04T11:26:21;22.20;99.90
18229;DHT22;9239;50.932;3.142;2023-06-04T11:28:52;22.20;99.90
18229;DHT22;9239;50.932;3.142;2023-06-04T11:31:19;22.30;99.90
18229;DHT22;9239;50.932;3.142;2023-06-04T11:33:47;22.20;99.90
18229;DHT22;9239;50.932;3.142;2023-06-04T11:36:22;22.40;99.90
18229;DHT22;9239;50.932;3.142;2023-06-04T11:38:57;22.40;99.90
18229;DHT22;9239;50.932;3.142;2023-06-04T11:41:26;22.60;99.90
18229;DHT22;9239;50.932;3.142;2023-06-04T11:43:55;22.40;99.90
18229;DHT22;9239;50.932;3.142;2023-06-04T11:46:22;22.30;99.90
18229;DHT22;9239;50.932;3.142;2023-06-04T11:48:50;22.30;99.90
18229;DHT22;9239;50.932;3.142;2023-06-04T11:51:19;22.40;99.90
18229;DHT22;9239;50.932;3.142;2023-06-04T11:53:46;22.60;99.90
18229;DHT22;9239;50.932;3.142;2023-06-04T11:56:14;22.60;99.90
18229;DHT22;9239;50.932;3.142;2023-06-04T11:58:41;22.60;99.90
18229;DHT22;9239;50.932;3.142;2023-06-04T12:01:09;22.70;99.90
18229;DHT22;9239;50.932;3.142;2023-06-04T12:03:38;22.70;99.90
18229;DHT22;9239;50.932;3.142;2023-06-04T12:06:12;22.80;99.90
18229;DHT22;9239;50.932;3.142;2023-06-04T12:08:49;22.90;99.90
18229;DHT22;9239;50.932;3.142;2023-06-04T12:11:28;22.90;99.90
18229;DHT22;9239;50.932;3.142;2023-06-04T12:13:57;22.80;99.90
18229;DHT22;9239;50.932;3.142;2023-06-04T12:16:26;22.90;99.90
18229;DHT22;9239;50.932;3.142;2023-06-04T12:19:04;22.90;99.90
18229;DHT22;9239;50.932;3.142;2023-06-04T12:21:32;22.80;99.90
18229;DHT22;9239;50.932;3.142;2023-06-04T12:24:06;22.80;99.90
18229;DHT22;9239;50.932;3.142;2023-06-04T12:26:33;22.80;99.90
18229;DHT22;9239;50.932;3.142;2023-06-04T12:29:08;22.80;99.90
18229;DHT22;9239;50.932;3.142;2023-06-04T12:31:38;22.90;99.90
18229;DHT22;9239;50.932;3.142;2023-06-04T12:34:05;23.00;99.90
18229;DHT22;9239;50.932;3.142;2023-06-04T12:36:33;23.10;99.90
18229;DHT22;9239;50.932;3.142;2023-06-04T12:39:01;23.00;99.90
18229;DHT22;9239;50.932;3.142;2023-06-04T12:41:29;22.90;99.90
18229;DHT22;9239;50.932;3.142;2023-06-04T12:43:56;22.80;99.90
18229;DHT22;9239;50.932;3.142;2023-06-04T12:46:24;22.90;99.90
18229;DHT22;9239;50.932;3.142;2023-06-04T12:48:53;23.00;99.90
18229;DHT22;9239;50.932;3.142;2023-06-04T12:51:21;23.00;99.90
18229;DHT22;9239;50.932;3.142;2023-06-04T12:53:48;22.90;99.90
18229;DHT22;9239;50.932;3.142;2023-06-04T12:56:15;23.00;99.90
18229;DHT22;9239;50.932;3.142;2023-06-04T12:58:42;22.90;99.90
18229;DHT22;9239;50.932;3.142;2023-06-04T13:01:09;23.00;99.90
18229;DHT22;9239;50.932;3.142;2023-06-04T13:03:37;23.20;99.90
18229;DHT22;9239;50.932;3.142;2023-06-04T13:06:05;23.20;99.90
18229;DHT22;9239;50.932;3.142;2023-06-04T13:08:32;23.20;99.90
18229;DHT22;9239;50.932;3.142;2023-06-04T13:11:00;23.20;99.90
18229;DHT22;9239;50.932;3.142;2023-06-04T13:13:27;23.10;99.90
18229;DHT22;9239;50.932;3.142;2023-06-04T13:15:55;23.00;99.90
18229;DHT22;9239;50.932;3.142;2023-06-04T13:18:22;23.10;99.90
18229;DHT22;9239;50.932;3.142;2023-06-04T13:20:49;23.40;99.90
18229;DHT22;9239;50.932;3.142;2023-06-04T13:23:17;23.20;99.90
18229;DHT22;9239;50.932;3.142;2023-06-04T13:25:44;23.20;99.90
18229;DHT22;9239;50.932;3.142;2023-06-04T13:28:11;23.30;99.90
18229;DHT22;9239;50.932;3.142;2023-06-04T13:30:39;23.30;99.90
18229;DHT22;9239;50.932;3.142;2023-06-04T13:33:06;23.30;99.90
18229;DHT22;9239;50.932;3.142;2023-06-04T13:35:34;23.40;99.90
18229;DHT22;9239;50.932;3.142;2023-06-04T13:38:03;23.50;99.90
18229;DHT22;9239;50.932;3.142;2023-06-04T13:40:34;23.40;99.90
18229;DHT22;9239;50.932;3.142;2023-06-04T13:43:01;23.50;99.90
18229;DHT22;9239;50.932;3.142;2023-06-04T13:45:28;23.60;99.90
18229;DHT22;9239;50.932;3.142;2023-06-04T13:47:55;23.40;99.90
18229;DHT22;9239;50.932;3.142;2023-06-04T13:50:24;23.40;99.90
18229;DHT22;9239;50.932;3.142;2023-06-04T13:52:51;23.40;99.90
18229;DHT22;9239;50.932;3.142;2023-06-04T13:55:19;23.40;99.90
18229;DHT22;9239;50.932;3.142;2023-06-04T13:57:47;23.40;99.90
18229;DHT22;9239;50.932;3.142;2023-06-04T14:00:14;23.60;99.90
18229;DHT22;9239;50.932;3.142;2023-06-04T14:02:41;23.40;99.90
18229;DHT22;9239;50.932;3.142;2023-06-04T14:05:09;23.50;99.90
18229;DHT22;9239;50.932;3.142;2023-06-04T14:07:36;23.40;99.90
18229;DHT22;9239;50.932;3.142;2023-06-04T14:10:03;23.30;99.90
18229;DHT22;9239;50.932;3.142;2023-06-04T14:12:30;23.30;99.90
18229;DHT22;9239;50.932;3.142;2023-06-04T14:14:58;23.30;99.90
18229;DHT22;9239;50.932;3.142;2023-06-04T14:17:25;23.20;99.90
18229;DHT22;9239;50.932;3.142;2023-06-04T14:19:52;23.00;99.90
18229;DHT22;9239;50.932;3.142;2023-06-04T14:22:19;22.90;99.90
18229;DHT22;9239;50.932;3.142;2023-06-04T14:24:47;22.80;99.90
18229;DHT22;9239;50.932;3.142;2023-06-04T14:27:15;22.90;99.90
18229;DHT22;9239;50.932;3.142;2023-06-04T14:29:42;22.70;99.90
18229;DHT22;9239;50.932;3.142;2023-06-04T14:32:10;22.70;99.90
18229;DHT22;9239;50.932;3.142;2023-06-04T14:34:37;22.70;99.90
18229;DHT22;9239;50.932;3.142;2023-06-04T14:37:04;22.80;99.90
18229;DHT22;9239;50.932;3.142;2023-06-04T14:39:31;22.90;99.90
18229;DHT22;9239;50.932;3.142;2023-06-04T14:41:58;22.80;99.90
18229;DHT22;9239;50.932;3.142;2023-06-04T14:44:25;22.70;99.90
18229;DHT22;9239;50.932;3.142;2023-06-04T14:46:52;22.60;99.90
18229;DHT22;9239;50.932;3.142;2023-06-04T14:49:20;22.30;99.90
18229;DHT22;9239;50.932;3.142;2023-06-04T14:51:47;22.40;99.90
18229;DHT22;9239;50.932;3.142;2023-06-04T14:54:15;22.50;99.90
18229;DHT22;9239;50.932;3.142;2023-06-04T14:56:42;22.60;99.90
18229;DHT22;9239;50.932;3.142;2023-06-04T14:59:09;22.40;99.90
18229;DHT22;9239;50.932;3.142;2023-06-04T15:01:38;22.40;99.90
18229;DHT22;9239;50.932;3.142;2023-06-04T15:04:06;22.20;99.90
18229;DHT22;9239;50.932;3.142;2023-06-04T15:06:34;22.10;99.90
18229;DHT22;9239;50.932;3.142;2023-06-04T15:09:02;22.20;99.90
18229;DHT22;9239;50.932;3.142;2023-06-04T15:11:29;22.00;99.90
18229;DHT22;9239;50.932;3.142;2023-06-04T15:13:56;22.00;99.90
18229;DHT22;9239;50.932;3.142;2023-06-04T15:16:23;22.10;99.90
18229;DHT22;9239;50.932;3.142;2023-06-04T15:18:50;22.10;99.90
18229;DHT22;9239;50.932;3.142;2023-06-04T15:21:17;22.10;99.90
18229;DHT22;9239;50.932;3.142;2023-06-04T15:23:46;22.10;99.90
18229;DHT22;9239;50.932;3.142;2023-06-04T15:26:15;22.10;99.90
18229;DHT22;9239;50.932;3.142;2023-06-04T15:28:42;22.00;99.90
18229;DHT22;9239;50.932;3.142;2023-06-04T15:31:09;22.10;99.90
18229;DHT22;9239;50.932;3.142;2023-06-04T15:33:36;22.10;99.90
18229;DHT22;9239;50.932;3.142;2023-06-04T15:36:03;22.10;99.90
18229;DHT22;9239;50.932;3.142;2023-06-04T15:38:30;22.00;99.90
18229;DHT22;9239;50.932;3.142;2023-06-04T15:40:59;21.90;99.90
18229;DHT22;9239;50.932;3.142;2023-06-04T15:43:26;21.70;99.90
18229;DHT22;9239;50.932;3.142;2023-06-04T15:45:53;21.80;99.90
18229;DHT22;9239;50.932;3.142;2023-06-04T15:48:20;21.80;99.90
18229;DHT22;9239;50.932;3.142;2023-06-04T15:50:48;21.60;99.90